createdAt,value
2019-02-24T00:00:10.121Z,102987.00
2019-02-24T00:02:39.585Z,102981.00
2019-02-24T00:05:09.139Z,102988.00
2019-02-24T00:07:38.585Z,102999.00
2019-02-24T00:10:08.196Z,102998.00
2019-02-24T00:12:37.682Z,102987.00
2019-02-24T00:15:09.046Z,102977.00
2019-02-24T00:17:38.681Z,102972.00
2019-02-24T00:20:08.340Z,102971.00
2019-02-24T00:22:37.821Z,102989.00
2019-02-24T00:25:07.313Z,102989.00
2019-02-24T00:27:36.844Z,102985.00
2019-02-24T00:30:08.053Z,102986.00
2019-02-24T00:32:37.496Z,102994.00
2019-02-24T00:35:07.548Z,102987.00
2019-02-24T00:37:37.068Z,102977.00
2019-02-24T00:40:08.370Z,102984.00
2019-02-24T00:42:37.838Z,102979.00
2019-02-24T00:45:08.874Z,102958.00
2019-02-24T00:47:38.343Z,102962.00
2019-02-24T00:50:09.938Z,102962.00
2019-02-24T00:52:39.399Z,102955.00
2019-02-24T00:55:09.221Z,102945.00
2019-02-24T00:57:38.756Z,102941.00
2019-02-24T01:00:11.298Z,102937.00
2019-02-24T01:02:40.786Z,102953.00
2019-02-24T01:05:10.679Z,102953.00
2019-02-24T01:07:40.156Z,102942.00
2019-02-24T01:10:10.661Z,102956.00
2019-02-24T01:12:40.135Z,102975.00
2019-02-24T01:15:11.286Z,102968.00
2019-02-24T01:17:40.776Z,102956.00
2019-02-24T01:20:10.943Z,102966.00
2019-02-24T01:22:40.447Z,102967.00
2019-02-24T01:25:09.941Z,102964.00
2019-02-24T01:27:39.400Z,102977.00
2019-02-24T01:30:11.390Z,102960.00
2019-02-24T01:32:40.894Z,102936.00
2019-02-24T01:35:10.455Z,102953.00
2019-02-24T01:37:39.935Z,102935.00
2019-02-24T01:40:10.095Z,102917.00
2019-02-24T01:42:39.543Z,102932.00
2019-02-24T01:45:09.536Z,102935.00
2019-02-24T01:47:39.016Z,102932.00
2019-02-24T01:50:09.935Z,102904.00
2019-02-24T01:52:39.450Z,102890.00
2019-02-24T01:55:08.987Z,102906.00
2019-02-24T01:57:38.457Z,102889.00
2019-02-24T02:00:10.778Z,102868.00
2019-02-24T02:02:40.244Z,102851.00
2019-02-24T02:05:09.929Z,102850.00
2019-02-24T02:07:39.388Z,102851.00
2019-02-24T02:10:09.011Z,102830.00
2019-02-24T02:12:38.501Z,102853.00
2019-02-24T02:15:08.667Z,102862.00
2019-02-24T02:17:41.153Z,102862.00
2019-02-24T02:20:10.931Z,102866.00
2019-02-24T02:22:40.473Z,102858.00
2019-02-24T02:25:10.547Z,102870.00
2019-02-24T02:27:40.012Z,102879.00
2019-02-24T02:30:11.601Z,102879.00
2019-02-24T02:32:41.088Z,102881.00
2019-02-24T02:35:10.605Z,102881.00
2019-02-24T02:37:40.088Z,102883.00
2019-02-24T02:40:09.925Z,102881.00
2019-02-24T02:42:39.387Z,102898.00
2019-02-24T02:45:09.881Z,102903.00
2019-02-24T02:47:39.348Z,102871.00
2019-02-24T02:50:08.809Z,102857.00
2019-02-24T02:52:38.299Z,102836.00
2019-02-24T02:55:08.094Z,102834.00
2019-02-24T02:57:37.595Z,102848.00
2019-02-24T03:00:14.390Z,102850.00
2019-02-24T03:02:43.845Z,102855.00
2019-02-24T03:05:13.374Z,102862.00
2019-02-24T03:07:44.476Z,102822.00
2019-02-24T03:10:13.922Z,102815.00
2019-02-24T03:12:43.413Z,102817.00
2019-02-24T03:15:12.910Z,102818.00
2019-02-24T03:17:42.367Z,102823.00
2019-02-24T03:20:11.858Z,102823.00
2019-02-24T03:22:41.317Z,102822.00
2019-02-24T03:25:10.800Z,102830.00
2019-02-24T03:27:40.281Z,102835.00
2019-02-24T03:30:10.803Z,102814.00
2019-02-24T03:32:40.259Z,102801.00
2019-02-24T03:35:09.883Z,102802.00
2019-02-24T03:37:39.334Z,102798.00
2019-02-24T03:40:09.342Z,102801.00
2019-02-24T03:42:38.814Z,102810.00
2019-02-24T03:45:10.418Z,102831.00
2019-02-24T03:47:39.881Z,102845.00
2019-02-24T03:50:10.377Z,102837.00
2019-02-24T03:52:39.879Z,102838.00
2019-02-24T03:55:09.328Z,102847.00
2019-02-24T03:57:38.888Z,102834.00
2019-02-24T04:00:08.995Z,102841.00
2019-02-24T04:02:38.503Z,102863.00
2019-02-24T04:05:07.947Z,102857.00
2019-02-24T04:07:37.455Z,102853.00
2019-02-24T04:10:07.958Z,102846.00
2019-02-24T04:12:37.491Z,102835.00
2019-02-24T04:15:07.329Z,102834.00
2019-02-24T04:17:36.798Z,102828.00
2019-02-24T04:20:06.901Z,102820.00
2019-02-24T04:22:36.362Z,102817.00
2019-02-24T04:25:06.185Z,102816.00
2019-02-24T04:27:35.632Z,102806.00
2019-02-24T04:30:06.244Z,102811.00
2019-02-24T04:32:35.698Z,102820.00
2019-02-24T04:35:05.958Z,102840.00
2019-02-24T04:37:35.432Z,102845.00
2019-02-24T04:40:06.938Z,102852.00
2019-02-24T04:42:36.390Z,102849.00
2019-02-24T04:45:06.698Z,102840.00
2019-02-24T04:47:36.153Z,102837.00
2019-02-24T04:50:06.676Z,102847.00
2019-02-24T04:52:36.149Z,102846.00
2019-02-24T04:55:06.661Z,102841.00
2019-02-24T04:57:36.189Z,102822.00
2019-02-24T05:00:09.068Z,102815.00
2019-02-24T05:02:38.518Z,102821.00
2019-02-24T05:05:08.013Z,102819.00
2019-02-24T05:07:37.534Z,102812.00
2019-02-24T05:10:07.732Z,102819.00
2019-02-24T05:12:37.231Z,102823.00
2019-02-24T05:15:07.312Z,102831.00
2019-02-24T05:17:38.660Z,102829.00
2019-02-24T05:20:09.213Z,102815.00
2019-02-24T05:22:38.782Z,102820.00
2019-02-24T05:25:08.301Z,102828.00
2019-02-24T05:27:37.766Z,102820.00
2019-02-24T05:30:07.583Z,102831.00
2019-02-24T05:32:37.041Z,102839.00
2019-02-24T05:35:06.783Z,102830.00
2019-02-24T05:37:36.317Z,102844.00
2019-02-24T05:40:06.817Z,102834.00
2019-02-24T05:42:36.278Z,102852.00
2019-02-24T05:45:07.008Z,102848.00
2019-02-24T05:47:36.478Z,102850.00
2019-02-24T05:50:07.234Z,102849.00
2019-02-24T05:52:36.690Z,102846.00
2019-02-24T05:55:07.524Z,102851.00
2019-02-24T05:57:37.014Z,102851.00
2019-02-24T06:00:07.477Z,102849.00
2019-02-24T06:02:36.922Z,102847.00
2019-02-24T06:05:06.807Z,102842.00
2019-02-24T06:07:36.285Z,102831.00
2019-02-24T06:10:06.783Z,102811.00
2019-02-24T06:12:36.254Z,102807.00
2019-02-24T06:15:07.211Z,102803.00
2019-02-24T06:17:36.705Z,102796.00
2019-02-24T06:20:06.615Z,102785.00
2019-02-24T06:22:37.147Z,102802.00
2019-02-24T06:25:07.068Z,102804.00
2019-02-24T06:27:36.601Z,102799.00
2019-02-24T06:30:08.378Z,102788.00
2019-02-24T06:32:37.856Z,102788.00
2019-02-24T06:35:08.766Z,102778.00
2019-02-24T06:37:38.287Z,102767.00
2019-02-24T06:40:08.808Z,102769.00
2019-02-24T06:42:38.258Z,102790.00
2019-02-24T06:45:10.045Z,102808.00
2019-02-24T06:47:39.487Z,102797.00
2019-02-24T06:50:10.371Z,102810.00
2019-02-24T06:52:39.877Z,102809.00
2019-02-24T06:55:10.139Z,102806.00
2019-02-24T06:57:39.599Z,102821.00
2019-02-24T07:00:14.190Z,102817.00
2019-02-24T07:02:42.386Z,102789.00
2019-02-24T07:05:11.858Z,102783.00
2019-02-24T07:07:41.345Z,102781.00
2019-02-24T07:10:10.850Z,102782.00
2019-02-24T07:12:40.334Z,102775.00
2019-02-24T07:15:10.435Z,102781.00
2019-02-24T07:17:39.919Z,102781.00
2019-02-24T07:20:10.449Z,102780.00
2019-02-24T07:22:39.939Z,102791.00
2019-02-24T07:25:09.418Z,102791.00
2019-02-24T07:27:38.861Z,102784.00
2019-02-24T07:30:10.385Z,102786.00
2019-02-24T07:32:39.839Z,102774.00
2019-02-24T07:35:09.328Z,102776.00
2019-02-24T07:37:38.786Z,102755.00
2019-02-24T07:40:08.266Z,102740.00
2019-02-24T07:42:37.723Z,102742.00
2019-02-24T07:45:08.956Z,102737.00
2019-02-24T07:47:38.433Z,102732.00
2019-02-24T07:50:09.672Z,102726.00
2019-02-24T07:52:39.130Z,102721.00
2019-02-24T07:55:08.691Z,102725.00
2019-02-24T07:57:38.166Z,102731.00
2019-02-24T08:00:11.239Z,102725.00
2019-02-24T08:02:40.720Z,102726.00
2019-02-24T08:05:10.236Z,102711.00
2019-02-24T08:07:39.700Z,102732.00
2019-02-24T08:10:09.441Z,102722.00
2019-02-24T08:12:38.938Z,102728.00
2019-02-24T08:15:10.293Z,102725.00
2019-02-24T08:17:39.763Z,102721.00
2019-02-24T08:20:10.401Z,102730.00
2019-02-24T08:22:39.954Z,102734.00
2019-02-24T08:25:09.566Z,102720.00
2019-02-24T08:27:39.017Z,102726.00
2019-02-24T08:30:12.044Z,102721.00
2019-02-24T08:32:41.496Z,102720.00
2019-02-24T08:35:10.985Z,102726.00
2019-02-24T08:37:40.442Z,102728.00
2019-02-24T08:40:10.274Z,102726.00
2019-02-24T08:42:39.730Z,102729.00
2019-02-24T08:45:10.841Z,102723.00
2019-02-24T08:47:40.395Z,102722.00
2019-02-24T08:50:11.476Z,102728.00
2019-02-24T08:52:41.036Z,102729.00
2019-02-24T08:55:10.518Z,102720.00
2019-02-24T08:57:40.003Z,102727.00
2019-02-24T09:00:16.677Z,102735.00
2019-02-24T09:02:46.144Z,102732.00
2019-02-24T09:05:15.883Z,102727.00
2019-02-24T09:07:45.335Z,102722.00
2019-02-24T09:10:14.900Z,102712.00
2019-02-24T09:12:44.393Z,102715.00
2019-02-24T09:15:15.456Z,102717.00
2019-02-24T09:17:44.953Z,102724.00
2019-02-24T09:20:15.030Z,102733.00
2019-02-24T09:22:44.980Z,102722.00
2019-02-24T09:25:14.612Z,102724.00
2019-02-24T09:27:44.055Z,102721.00
2019-02-24T09:30:14.773Z,102719.00
2019-02-24T09:32:44.251Z,102722.00
2019-02-24T09:35:13.692Z,102710.00
2019-02-24T09:37:43.327Z,102718.00
2019-02-24T09:40:13.536Z,102718.00
2019-02-24T09:42:42.984Z,102714.00
2019-02-24T09:45:13.706Z,102707.00
2019-02-24T09:47:46.912Z,102712.00
2019-02-24T09:50:14.350Z,102710.00
2019-02-24T09:52:45.519Z,102709.00
2019-02-24T09:55:15.046Z,102704.00
2019-02-24T09:57:44.495Z,102709.00
2019-02-24T10:00:16.490Z,102717.00
2019-02-24T10:02:45.932Z,102705.00
2019-02-24T10:05:15.393Z,102715.00
2019-02-24T10:07:44.981Z,102722.00
2019-02-24T10:10:16.001Z,102716.00
2019-02-24T10:12:45.523Z,102732.00
2019-02-24T10:15:15.827Z,102716.00
2019-02-24T10:17:45.270Z,102720.00
2019-02-24T10:20:15.168Z,102726.00
2019-02-24T10:22:44.669Z,102724.00
2019-02-24T10:25:14.200Z,102725.00
2019-02-24T10:27:43.660Z,102722.00
2019-02-24T10:30:15.795Z,102721.00
2019-02-24T10:32:45.246Z,102722.00
2019-02-24T10:35:14.772Z,102725.00
2019-02-24T10:37:44.267Z,102717.00
2019-02-24T10:40:17.815Z,102706.00
2019-02-24T10:42:47.271Z,102722.00
2019-02-24T10:45:18.960Z,102717.00
2019-02-24T10:47:48.418Z,102709.00
2019-02-24T10:50:18.605Z,102716.00
2019-02-24T10:52:48.148Z,102703.00
2019-02-24T10:55:17.835Z,102711.00
2019-02-24T10:57:47.284Z,102712.00
2019-02-24T11:00:19.838Z,102705.00
2019-02-24T11:02:49.290Z,102703.00
2019-02-24T11:05:18.743Z,102704.00
2019-02-24T11:07:48.236Z,102701.00
2019-02-24T11:10:17.693Z,102696.00
2019-02-24T11:12:47.698Z,102691.00
2019-02-24T11:15:17.184Z,102683.00
2019-02-24T11:17:46.690Z,102686.00
2019-02-24T11:20:18.064Z,102676.00
2019-02-24T11:22:47.621Z,102668.00
2019-02-24T11:25:17.080Z,102669.00
2019-02-24T11:27:46.567Z,102654.00
2019-02-24T11:30:16.577Z,102642.00
2019-02-24T11:32:46.037Z,102644.00
2019-02-24T11:35:15.532Z,102635.00
2019-02-24T11:37:44.961Z,102630.00
2019-02-24T11:40:19.539Z,102638.00
2019-02-24T11:42:49.371Z,102630.00
2019-02-24T11:45:18.855Z,102634.00
2019-02-24T11:47:48.313Z,102623.00
2019-02-24T11:50:17.789Z,102617.00
2019-02-24T11:52:47.263Z,102623.00
2019-02-24T11:55:16.825Z,102619.00
2019-02-24T11:57:46.310Z,102612.00
2019-02-24T12:00:18.737Z,102602.00
2019-02-24T12:02:49.753Z,102603.00
2019-02-24T12:05:19.218Z,102597.00
2019-02-24T12:07:48.718Z,102603.00
2019-02-24T12:10:18.167Z,102586.00
2019-02-24T12:12:47.653Z,102598.00
2019-02-24T12:15:17.148Z,102618.00
2019-02-24T12:17:46.593Z,102617.00
2019-02-24T12:20:16.235Z,102611.00
2019-02-24T12:22:45.713Z,102607.00
2019-02-24T12:25:15.191Z,102610.00
2019-02-24T12:27:44.683Z,102607.00
2019-02-24T12:30:18.480Z,102614.00
2019-02-24T12:32:47.936Z,102621.00
2019-02-24T12:35:17.440Z,102618.00
2019-02-24T12:37:46.891Z,102623.00
2019-02-24T12:40:17.062Z,102626.00
2019-02-24T12:42:46.542Z,102611.00
2019-02-24T12:45:16.001Z,102609.00
2019-02-24T12:47:45.467Z,102615.00
2019-02-24T12:50:16.958Z,102620.00
2019-02-24T12:52:46.456Z,102611.00
2019-02-24T12:55:15.974Z,102611.00
2019-02-24T12:57:45.429Z,102609.00
2019-02-24T13:00:26.456Z,102613.00
2019-02-24T13:02:56.030Z,102614.00
2019-02-24T13:05:25.508Z,102612.00
2019-02-24T13:07:54.959Z,102604.00
2019-02-24T13:10:24.460Z,102610.00
2019-02-24T13:12:53.949Z,102602.00
2019-02-24T13:15:23.422Z,102603.00
2019-02-24T13:17:52.942Z,102605.00
2019-02-24T13:20:22.413Z,102593.00
2019-02-24T13:22:52.045Z,102600.00
2019-02-24T13:25:21.580Z,102587.00
2019-02-24T13:27:51.059Z,102583.00
2019-02-24T13:30:20.686Z,102575.00
2019-02-24T13:32:51.094Z,102577.00
2019-02-24T13:35:20.551Z,102572.00
2019-02-24T13:37:50.036Z,102575.00
2019-02-24T13:40:19.556Z,102576.00
2019-02-24T13:42:49.021Z,102569.00
2019-02-24T13:45:20.599Z,102565.00
2019-02-24T13:47:50.053Z,102561.00
2019-02-24T13:50:19.575Z,102565.00
2019-02-24T13:52:49.019Z,102565.00
2019-02-24T13:55:18.483Z,102558.00
2019-02-24T13:57:47.975Z,102567.00
2019-02-24T14:00:23.726Z,102569.00
2019-02-24T14:02:53.204Z,102567.00
2019-02-24T14:05:22.664Z,102574.00
2019-02-24T14:07:52.147Z,102555.00
2019-02-24T14:10:21.592Z,102559.00
2019-02-24T14:12:51.119Z,102554.00
2019-02-24T14:15:20.571Z,102567.00
2019-02-24T14:17:50.086Z,102560.00
2019-02-24T14:20:20.140Z,102573.00
2019-02-24T14:22:49.597Z,102577.00
2019-02-24T14:25:19.060Z,102579.00
2019-02-24T14:27:49.534Z,102587.00
2019-02-24T14:30:19.765Z,102587.00
2019-02-24T14:32:49.223Z,102591.00
2019-02-24T14:35:26.978Z,102590.00
2019-02-24T14:37:56.446Z,102591.00
2019-02-24T14:40:25.901Z,102568.00
2019-02-24T14:42:55.393Z,102576.00
2019-02-24T14:45:25.683Z,102576.00
2019-02-24T14:47:55.170Z,102567.00
2019-02-24T14:50:24.634Z,102573.00
2019-02-24T14:52:54.092Z,102569.00
2019-02-24T14:55:23.559Z,102569.00
2019-02-24T14:57:53.006Z,102573.00
2019-02-24T15:00:25.778Z,102574.00
2019-02-24T15:02:55.225Z,102564.00
2019-02-24T15:05:24.684Z,102558.00
2019-02-24T15:07:54.163Z,102562.00
2019-02-24T15:10:25.219Z,102555.00
2019-02-24T15:12:54.665Z,102560.00
2019-02-24T15:15:34.458Z,102559.00
2019-02-24T15:18:03.973Z,102547.00
2019-02-24T15:20:33.435Z,102544.00
2019-02-24T15:23:03.187Z,102549.00
2019-02-24T15:25:32.654Z,102547.00
2019-02-24T15:28:02.091Z,102548.00
2019-02-24T15:30:36.961Z,102559.00
2019-02-24T15:33:06.554Z,102549.00
2019-02-24T15:35:36.081Z,102551.00
2019-02-24T15:38:05.785Z,102571.00
2019-02-24T15:40:35.243Z,102553.00
2019-02-24T15:43:04.766Z,102571.00
2019-02-24T15:45:34.340Z,102566.00
2019-02-24T15:48:03.787Z,102572.00
2019-02-24T15:50:33.237Z,102570.00
2019-02-24T15:53:02.703Z,102578.00
2019-02-24T15:55:32.170Z,102574.00
2019-02-24T15:58:01.613Z,102581.00
2019-02-24T16:00:31.394Z,102570.00
2019-02-24T16:03:01.970Z,102575.00
2019-02-24T16:05:31.684Z,102567.00
2019-02-24T16:08:01.171Z,102561.00
2019-02-24T16:10:30.635Z,102560.00
2019-02-24T16:13:00.091Z,102567.00
2019-02-24T16:15:30.143Z,102556.00
2019-02-24T16:17:59.614Z,102550.00
2019-02-24T16:20:36.049Z,102555.00
2019-02-24T16:23:05.525Z,102561.00
2019-02-24T16:25:34.974Z,102561.00
2019-02-24T16:28:04.475Z,102568.00
2019-02-24T16:30:33.938Z,102555.00
2019-02-24T16:33:10.310Z,102562.00
2019-02-24T16:35:34.588Z,102564.00
2019-02-24T16:38:04.041Z,102559.00
2019-02-24T16:40:33.480Z,102564.00
2019-02-24T16:43:02.972Z,102570.00
2019-02-24T16:45:32.452Z,102560.00
2019-02-24T16:48:01.900Z,102570.00
2019-02-24T16:50:31.402Z,102569.00
2019-02-24T16:53:00.862Z,102564.00
2019-02-24T16:55:30.360Z,102554.00
2019-02-24T16:57:59.816Z,102557.00
2019-02-24T17:00:30.308Z,102570.00
2019-02-24T17:02:59.865Z,102572.00
2019-02-24T17:05:29.583Z,102580.00
2019-02-24T17:07:59.070Z,102579.00
2019-02-24T17:10:29.823Z,102579.00
2019-02-24T17:12:59.292Z,102574.00
2019-02-24T17:15:28.732Z,102576.00
2019-02-24T17:17:58.205Z,102585.00
2019-02-24T17:20:31.625Z,102591.00
2019-02-24T17:23:01.067Z,102584.00
2019-02-24T17:25:30.558Z,102582.00
2019-02-24T17:28:00.051Z,102580.00
2019-02-24T17:30:29.513Z,102581.00
2019-02-24T17:32:59.000Z,102590.00
2019-02-24T17:35:28.439Z,102583.00
2019-02-24T17:37:57.967Z,102593.00
2019-02-24T17:40:27.434Z,102584.00
2019-02-24T17:42:56.892Z,102594.00
2019-02-24T17:45:26.387Z,102582.00
2019-02-24T17:47:55.870Z,102588.00
2019-02-24T17:50:25.355Z,102580.00
2019-02-24T17:52:54.839Z,102577.00
2019-02-24T17:55:24.287Z,102583.00
2019-02-24T17:57:53.761Z,102579.00
2019-02-24T18:00:32.782Z,102575.00
2019-02-24T18:03:02.243Z,102573.00
2019-02-24T18:05:31.884Z,102563.00
2019-02-24T18:08:01.398Z,102574.00
2019-02-24T18:10:30.835Z,102569.00
2019-02-24T18:13:00.342Z,102572.00
2019-02-24T18:15:29.804Z,102572.00
2019-02-24T18:17:59.259Z,102586.00
2019-02-24T18:20:28.798Z,102589.00
2019-02-24T18:22:59.597Z,102590.00
2019-02-24T18:25:29.112Z,102582.00
2019-02-24T18:27:58.619Z,102579.00
2019-02-24T18:30:31.942Z,102575.00
2019-02-24T18:33:01.399Z,102576.00
2019-02-24T18:35:30.889Z,102574.00
2019-02-24T18:38:00.339Z,102576.00
2019-02-24T18:40:29.797Z,102574.00
2019-02-24T18:43:00.585Z,102587.00
2019-02-24T18:45:30.233Z,102595.00
2019-02-24T18:47:59.708Z,102595.00
2019-02-24T18:50:29.347Z,102580.00
2019-02-24T18:52:58.795Z,102582.00
2019-02-24T18:55:28.263Z,102579.00
2019-02-24T18:57:57.741Z,102581.00
2019-02-24T19:00:27.197Z,102583.00
2019-02-24T19:02:56.670Z,102564.00
2019-02-24T19:05:26.179Z,102586.00
2019-02-24T19:07:55.644Z,102579.00
2019-02-24T19:10:25.261Z,102572.00
2019-02-24T19:12:54.728Z,102577.00
2019-02-24T19:15:25.416Z,102578.00
2019-02-24T19:17:54.893Z,102576.00
2019-02-24T19:20:25.261Z,102578.00
2019-02-24T19:22:54.745Z,102585.00
2019-02-24T19:25:24.310Z,102576.00
2019-02-24T19:27:55.551Z,102568.00
2019-02-24T19:30:25.011Z,102576.00
2019-02-24T19:32:54.496Z,102560.00
2019-02-24T19:35:23.969Z,102572.00
2019-02-24T19:37:53.475Z,102571.00
2019-02-24T19:40:23.345Z,102572.00
2019-02-24T19:42:52.824Z,102562.00
2019-02-24T19:45:25.462Z,102574.00
2019-02-24T19:47:54.953Z,102581.00
2019-02-24T19:50:24.678Z,102582.00
2019-02-24T19:52:54.135Z,102601.00
2019-02-24T19:55:23.616Z,102597.00
2019-02-24T19:57:53.063Z,102591.00
2019-02-24T20:00:25.502Z,102598.00
2019-02-24T20:02:54.989Z,102591.00
2019-02-24T20:05:24.454Z,102586.00
2019-02-24T20:07:53.915Z,102585.00
2019-02-24T20:10:26.690Z,102592.00
2019-02-24T20:12:56.135Z,102589.00
2019-02-24T20:15:25.595Z,102592.00
2019-02-24T20:17:56.528Z,102586.00
2019-02-24T20:20:25.996Z,102598.00
2019-02-24T20:22:55.491Z,102599.00
2019-02-24T20:25:25.133Z,102602.00
2019-02-24T20:27:54.644Z,102600.00
2019-02-24T20:30:34.234Z,102602.00
2019-02-24T20:33:03.703Z,102594.00
2019-02-24T20:35:33.188Z,102589.00
2019-02-24T20:38:02.650Z,102590.00
2019-02-24T20:40:32.101Z,102605.00
2019-02-24T20:43:01.596Z,102602.00
2019-02-24T20:45:32.316Z,102605.00
2019-02-24T20:48:01.762Z,102597.00
2019-02-24T20:50:35.904Z,102586.00
2019-02-24T20:53:05.692Z,102593.00
2019-02-24T20:55:35.200Z,102593.00
2019-02-24T20:58:04.818Z,102596.00
2019-02-24T21:00:45.263Z,102606.00
2019-02-24T21:03:14.960Z,102608.00
2019-02-24T21:05:44.410Z,102622.00
2019-02-24T21:08:13.935Z,102622.00
2019-02-24T21:10:45.940Z,102616.00
2019-02-24T21:13:16.822Z,102621.00
2019-02-24T21:15:46.436Z,102613.00
2019-02-24T21:18:15.925Z,102615.00
2019-02-24T21:20:45.359Z,102619.00
2019-02-24T21:23:14.822Z,102618.00
2019-02-24T21:25:44.296Z,102616.00
2019-02-24T21:28:13.758Z,102620.00
2019-02-24T21:30:43.218Z,102611.00
2019-02-24T21:33:12.694Z,102607.00
2019-02-24T21:35:42.223Z,102618.00
2019-02-24T21:38:11.689Z,102607.00
2019-02-24T21:40:41.179Z,102605.00
2019-02-24T21:43:10.624Z,102611.00
2019-02-24T21:45:41.528Z,102591.00
2019-02-24T21:48:11.505Z,102597.00
2019-02-24T21:50:41.026Z,102586.00
2019-02-24T21:53:10.489Z,102589.00
2019-02-24T21:55:39.982Z,102595.00
2019-02-24T21:58:09.440Z,102594.00
2019-02-24T22:00:38.891Z,102594.00
2019-02-24T22:03:08.379Z,102606.00
2019-02-24T22:05:37.841Z,102588.00
2019-02-24T22:08:07.355Z,102595.00
2019-02-24T22:10:36.851Z,102601.00
2019-02-24T22:13:06.302Z,102606.00
2019-02-24T22:15:35.760Z,102613.00
2019-02-24T22:18:05.284Z,102619.00
2019-02-24T22:20:34.695Z,102615.00
2019-02-24T22:23:06.049Z,102628.00
2019-02-24T22:25:35.657Z,102619.00
2019-02-24T22:28:05.118Z,102612.00
2019-02-24T22:30:35.545Z,102616.00
2019-02-24T22:33:05.035Z,102606.00
2019-02-24T22:35:34.492Z,102611.00
2019-02-24T22:38:03.952Z,102610.00
2019-02-24T22:40:33.454Z,102619.00
2019-02-24T22:43:02.906Z,102609.00
2019-02-24T22:45:32.360Z,102602.00
2019-02-24T22:48:03.184Z,102616.00
2019-02-24T22:50:32.765Z,102606.00
2019-02-24T22:53:02.213Z,102612.00
2019-02-24T22:55:33.308Z,102608.00
2019-02-24T22:58:02.759Z,102618.00
2019-02-24T23:00:53.545Z,102611.00
2019-02-24T23:03:26.984Z,102598.00
2019-02-24T23:05:56.600Z,102595.00
2019-02-24T23:08:26.070Z,102598.00
2019-02-24T23:10:55.529Z,102588.00
2019-02-24T23:13:24.973Z,102589.00
2019-02-24T23:15:54.472Z,102588.00
2019-02-24T23:18:23.964Z,102588.00
2019-02-24T23:20:53.404Z,102588.00
2019-02-24T23:23:22.883Z,102594.00
2019-02-24T23:25:52.427Z,102583.00
2019-02-24T23:28:21.865Z,102585.00
2019-02-24T23:30:51.340Z,102582.00
2019-02-24T23:33:20.790Z,102571.00
2019-02-24T23:35:50.243Z,102584.00
2019-02-24T23:38:19.856Z,102578.00
2019-02-24T23:40:49.321Z,102586.00
2019-02-24T23:43:18.802Z,102572.00
2019-02-24T23:45:48.285Z,102566.00
2019-02-24T23:48:17.729Z,102565.00
2019-02-24T23:50:47.178Z,102570.00
2019-02-24T23:53:16.660Z,102566.00
2019-02-24T23:55:46.119Z,102560.00
2019-02-24T23:58:15.592Z,102558.00
